createdAt,value
2019-02-23T00:01:15.359Z,27.27
2019-02-23T00:03:45.122Z,25.43
2019-02-23T00:06:15.051Z,19.87
2019-02-23T00:08:44.903Z,16.30
2019-02-23T00:11:14.761Z,17.13
2019-02-23T00:13:44.826Z,18.73
2019-02-23T00:16:14.616Z,16.77
2019-02-23T00:18:48.297Z,16.57
2019-02-23T00:21:18.206Z,17.67
2019-02-23T00:23:47.866Z,17.33
2019-02-23T00:26:17.571Z,20.40
2019-02-23T00:28:47.281Z,16.20
2019-02-23T00:31:16.418Z,14.70
2019-02-23T00:33:45.529Z,14.17
2019-02-23T00:36:14.596Z,15.20
2019-02-23T00:38:43.679Z,15.87
2019-02-23T00:41:12.745Z,15.23
2019-02-23T00:43:41.820Z,14.87
2019-02-23T00:46:10.910Z,17.70
2019-02-23T00:48:39.964Z,17.00
2019-02-23T00:51:09.072Z,15.77
2019-02-23T00:53:38.181Z,16.23
2019-02-23T00:56:07.383Z,14.53
2019-02-23T00:58:36.569Z,14.73
2019-02-23T01:01:05.743Z,14.77
2019-02-23T01:03:34.942Z,16.60
2019-02-23T01:06:04.117Z,15.90
2019-02-23T01:08:33.258Z,15.77
2019-02-23T01:11:02.375Z,14.00
2019-02-23T01:13:31.533Z,16.23
2019-02-23T01:16:00.616Z,15.47
2019-02-23T01:18:29.756Z,13.13
2019-02-23T01:20:58.841Z,17.67
2019-02-23T01:23:28.009Z,16.97
2019-02-23T01:25:57.083Z,16.33
2019-02-23T01:28:26.162Z,16.60
2019-02-23T01:30:55.263Z,16.30
2019-02-23T01:33:24.317Z,17.13
2019-02-23T01:35:53.420Z,17.87
2019-02-23T01:38:22.470Z,19.00
2019-02-23T01:40:51.587Z,17.37
2019-02-23T01:43:20.566Z,18.23
2019-02-23T01:45:49.663Z,15.90
2019-02-23T01:48:18.733Z,19.47
2019-02-23T01:50:47.801Z,17.43
2019-02-23T01:53:16.949Z,16.77
2019-02-23T01:55:46.023Z,15.70
2019-02-23T01:58:15.076Z,15.30
2019-02-23T02:00:44.152Z,19.83
2019-02-23T02:03:13.247Z,17.40
2019-02-23T02:05:42.313Z,17.43
2019-02-23T02:08:11.398Z,16.50
2019-02-23T02:10:40.460Z,19.00
2019-02-23T02:13:09.551Z,15.90
2019-02-23T02:15:38.712Z,17.50
2019-02-23T02:18:07.850Z,14.20
2019-02-23T02:20:36.937Z,16.93
2019-02-23T02:23:06.059Z,14.47
2019-02-23T02:25:35.105Z,16.37
2019-02-23T02:28:04.215Z,13.50
2019-02-23T02:30:33.304Z,15.17
2019-02-23T02:33:02.415Z,19.97
2019-02-23T02:35:31.599Z,14.07
2019-02-23T02:38:00.688Z,20.43
2019-02-23T02:40:29.925Z,18.00
2019-02-23T02:42:59.028Z,17.13
2019-02-23T02:45:28.124Z,16.93
2019-02-23T02:47:57.217Z,20.07
2019-02-23T02:50:26.276Z,17.53
2019-02-23T02:52:55.367Z,16.17
2019-02-23T02:55:24.413Z,16.33
2019-02-23T02:57:53.532Z,18.57
2019-02-23T03:00:22.614Z,14.70
2019-02-23T03:02:51.639Z,16.07
2019-02-23T03:05:20.810Z,13.30
2019-02-23T03:07:49.913Z,16.30
2019-02-23T03:10:18.979Z,13.27
2019-02-23T03:12:48.044Z,17.03
2019-02-23T03:15:17.089Z,14.50
2019-02-23T03:17:46.165Z,12.93
2019-02-23T03:20:15.242Z,15.47
2019-02-23T03:22:44.274Z,13.13
2019-02-23T03:25:13.336Z,15.70
2019-02-23T03:27:42.442Z,13.53
2019-02-23T03:30:11.847Z,14.00
2019-02-23T03:32:41.193Z,14.60
2019-02-23T03:35:10.326Z,12.43
2019-02-23T03:37:39.414Z,13.17
2019-02-23T03:40:09.308Z,13.47
2019-02-23T03:42:38.397Z,10.97
2019-02-23T03:45:07.483Z,12.37
2019-02-23T03:47:36.575Z,13.53
2019-02-23T03:50:05.850Z,11.37
2019-02-23T03:52:34.953Z,11.07
2019-02-23T03:55:04.138Z,12.70
2019-02-23T03:57:33.264Z,11.53
2019-02-23T04:00:02.414Z,10.37
2019-02-23T04:02:31.540Z,11.33
2019-02-23T04:05:00.616Z,14.33
2019-02-23T04:07:29.628Z,11.37
2019-02-23T04:09:58.970Z,12.03
2019-02-23T04:12:28.030Z,10.00
2019-02-23T04:14:57.121Z,10.87
2019-02-23T04:17:26.230Z,10.23
2019-02-23T04:19:55.326Z,10.60
2019-02-23T04:22:24.409Z,11.27
2019-02-23T04:24:53.484Z,9.83
2019-02-23T04:27:22.555Z,13.00
2019-02-23T04:29:51.650Z,10.73
2019-02-23T04:32:20.729Z,11.70
2019-02-23T04:34:49.814Z,11.63
2019-02-23T04:37:18.882Z,12.30
2019-02-23T04:39:47.944Z,13.33
2019-02-23T04:42:17.010Z,13.93
2019-02-23T04:44:46.008Z,11.63
2019-02-23T04:47:14.994Z,12.17
2019-02-23T04:49:52.380Z,13.70
2019-02-23T04:52:21.484Z,13.90
2019-02-23T04:54:50.564Z,10.50
2019-02-23T04:57:19.654Z,12.67
2019-02-23T04:59:48.737Z,13.20
2019-02-23T05:02:17.848Z,14.63
2019-02-23T05:04:46.831Z,13.27
2019-02-23T05:07:15.918Z,12.47
2019-02-23T05:09:44.967Z,9.60
2019-02-23T05:12:13.980Z,11.53
2019-02-23T05:14:43.041Z,14.03
2019-02-23T05:17:12.134Z,9.30
2019-02-23T05:19:41.189Z,12.00
2019-02-23T05:22:10.274Z,12.97
2019-02-23T05:24:39.413Z,13.70
2019-02-23T05:27:08.515Z,15.60
2019-02-23T05:29:37.593Z,17.73
2019-02-23T05:32:06.648Z,15.07
2019-02-23T05:34:35.764Z,13.60
2019-02-23T05:37:04.819Z,17.97
2019-02-23T05:39:33.883Z,13.00
2019-02-23T05:42:02.942Z,17.23
2019-02-23T05:44:32.010Z,18.20
2019-02-23T05:47:01.074Z,18.50
2019-02-23T05:49:30.131Z,13.47
2019-02-23T05:51:59.108Z,18.20
2019-02-23T05:54:28.210Z,17.07
2019-02-23T05:56:57.275Z,16.53
2019-02-23T05:59:26.282Z,20.07
2019-02-23T06:01:55.437Z,19.50
2019-02-23T06:04:24.529Z,19.40
2019-02-23T06:06:53.539Z,17.90
2019-02-23T06:09:22.612Z,16.70
2019-02-23T06:11:51.688Z,21.17
2019-02-23T06:14:20.774Z,15.77
2019-02-23T06:16:49.850Z,18.67
2019-02-23T06:19:18.953Z,21.33
2019-02-23T06:21:53.519Z,18.60
2019-02-23T06:24:18.770Z,20.33
2019-02-23T06:26:47.864Z,17.60
2019-02-23T06:29:17.005Z,22.07
2019-02-23T06:31:46.042Z,20.33
2019-02-23T06:34:17.929Z,17.07
2019-02-23T06:36:47.014Z,16.73
2019-02-23T06:39:16.080Z,20.77
2019-02-23T06:41:45.138Z,22.93
2019-02-23T06:44:14.210Z,22.83
2019-02-23T06:46:43.277Z,24.43
2019-02-23T06:49:12.376Z,19.87
2019-02-23T06:51:41.458Z,21.63
2019-02-23T06:54:10.563Z,20.57
2019-02-23T06:56:39.632Z,21.93
2019-02-23T06:59:08.713Z,22.03
2019-02-23T07:01:37.824Z,22.00
2019-02-23T07:04:06.928Z,20.07
2019-02-23T07:06:36.008Z,23.20
2019-02-23T07:09:05.817Z,21.97
2019-02-23T07:11:34.992Z,22.37
2019-02-23T07:14:04.080Z,20.80
2019-02-23T07:16:33.154Z,22.50
2019-02-23T07:19:02.147Z,19.10
2019-02-23T07:21:31.235Z,19.40
2019-02-23T07:24:00.285Z,23.90
2019-02-23T07:26:29.365Z,23.03
2019-02-23T07:28:58.463Z,21.23
2019-02-23T07:31:27.551Z,22.20
2019-02-23T07:33:56.631Z,24.40
2019-02-23T07:36:25.727Z,21.37
2019-02-23T07:38:54.790Z,21.20
2019-02-23T07:41:23.907Z,21.17
2019-02-23T07:43:53.013Z,22.87
2019-02-23T07:46:22.033Z,21.07
2019-02-23T07:48:51.055Z,22.20
2019-02-23T07:51:20.151Z,18.70
2019-02-23T07:53:49.141Z,23.27
2019-02-23T07:56:18.232Z,27.73
2019-02-23T07:58:47.246Z,24.40
2019-02-23T08:01:16.361Z,23.07
2019-02-23T08:03:45.438Z,24.47
2019-02-23T08:06:14.485Z,23.17
2019-02-23T08:08:43.567Z,20.57
2019-02-23T08:11:12.692Z,30.63
2019-02-23T08:13:41.728Z,27.23
2019-02-23T08:16:10.794Z,26.63
2019-02-23T08:18:39.899Z,23.77
2019-02-23T08:21:08.987Z,23.60
2019-02-23T08:23:38.159Z,23.27
2019-02-23T08:26:07.266Z,25.00
2019-02-23T08:28:36.350Z,21.93
2019-02-23T08:31:05.585Z,21.80
2019-02-23T08:33:34.689Z,19.43
2019-02-23T08:36:03.839Z,20.77
2019-02-23T08:38:32.930Z,19.20
2019-02-23T08:41:02.013Z,19.23
2019-02-23T08:43:31.098Z,17.10
2019-02-23T08:46:00.311Z,18.33
2019-02-23T08:48:29.368Z,17.40
2019-02-23T08:50:58.406Z,18.50
2019-02-23T08:53:27.460Z,18.57
2019-02-23T08:55:57.481Z,16.10
2019-02-23T08:58:26.579Z,18.27
2019-02-23T09:00:55.753Z,17.13
2019-02-23T09:03:24.851Z,18.57
2019-02-23T09:05:53.934Z,19.03
2019-02-23T09:08:23.016Z,16.30
2019-02-23T09:10:52.130Z,17.70
2019-02-23T09:13:21.230Z,15.53
2019-02-23T09:15:50.296Z,16.37
2019-02-23T09:18:19.352Z,14.77
2019-02-23T09:20:48.485Z,16.33
2019-02-23T09:23:17.653Z,15.23
2019-02-23T09:25:46.758Z,14.50
2019-02-23T09:28:15.870Z,15.70
2019-02-23T09:30:44.972Z,14.67
2019-02-23T09:33:14.135Z,13.60
2019-02-23T09:35:43.268Z,13.17
2019-02-23T09:38:12.360Z,14.43
2019-02-23T09:40:41.456Z,13.50
2019-02-23T09:43:10.544Z,12.40
2019-02-23T09:45:39.685Z,12.33
2019-02-23T09:48:08.796Z,13.17
2019-02-23T09:50:37.920Z,12.27
2019-02-23T09:53:11.124Z,12.33
2019-02-23T09:55:37.820Z,13.40
2019-02-23T09:58:06.923Z,14.00
2019-02-23T10:00:36.091Z,13.20
2019-02-23T10:03:05.156Z,12.63
2019-02-23T10:05:34.240Z,12.10
2019-02-23T10:08:03.357Z,12.60
2019-02-23T10:10:32.443Z,12.70
2019-02-23T10:13:01.569Z,12.07
2019-02-23T10:15:30.658Z,13.70
2019-02-23T10:17:59.853Z,12.63
2019-02-23T10:20:28.948Z,11.30
2019-02-23T10:22:58.066Z,11.27
2019-02-23T10:25:27.218Z,13.33
2019-02-23T10:27:56.334Z,12.90
2019-02-23T10:30:25.397Z,11.10
2019-02-23T10:32:54.518Z,13.90
2019-02-23T10:35:23.604Z,11.50
2019-02-23T10:37:52.712Z,11.03
2019-02-23T10:40:21.767Z,11.43
2019-02-23T10:42:50.850Z,12.23
2019-02-23T10:45:19.903Z,11.93
2019-02-23T10:47:50.267Z,12.57
2019-02-23T10:50:19.527Z,10.93
2019-02-23T10:52:48.618Z,11.10
2019-02-23T10:55:17.774Z,11.40
2019-02-23T10:57:46.900Z,11.17
2019-02-23T11:00:18.500Z,11.43
2019-02-23T11:02:47.597Z,12.03
2019-02-23T11:05:17.047Z,11.27
2019-02-23T11:07:46.128Z,11.33
2019-02-23T11:10:15.996Z,11.37
2019-02-23T11:12:45.164Z,11.40
2019-02-23T11:15:14.793Z,12.80
2019-02-23T11:17:43.914Z,12.20
2019-02-23T11:20:13.290Z,10.90
2019-02-23T11:22:42.390Z,11.40
2019-02-23T11:25:11.495Z,10.77
2019-02-23T11:27:40.594Z,10.97
2019-02-23T11:30:10.334Z,11.40
2019-02-23T11:32:39.432Z,10.67
2019-02-23T11:35:09.031Z,11.67
2019-02-23T11:37:38.145Z,10.83
2019-02-23T11:40:08.468Z,10.70
2019-02-23T11:42:37.578Z,10.17
2019-02-23T11:45:06.788Z,11.50
2019-02-23T11:47:35.878Z,11.27
2019-02-23T11:50:05.092Z,10.87
2019-02-23T11:52:34.117Z,10.80
2019-02-23T11:55:03.202Z,10.67
2019-02-23T11:57:32.279Z,10.20
2019-02-23T12:00:01.270Z,11.30
2019-02-23T12:02:30.369Z,10.27
2019-02-23T12:04:59.441Z,9.90
2019-02-23T12:07:28.528Z,10.57
2019-02-23T12:09:57.692Z,9.60
2019-02-23T12:12:26.808Z,11.00
2019-02-23T12:14:55.892Z,9.60
2019-02-23T12:17:25.058Z,10.60
2019-02-23T12:19:55.369Z,10.30
2019-02-23T12:22:24.652Z,10.40
2019-02-23T12:24:53.831Z,10.43
2019-02-23T12:27:22.947Z,9.50
2019-02-23T12:29:52.030Z,11.17
2019-02-23T12:55:52.087Z,9.03
2019-02-23T12:58:23.971Z,10.00
2019-02-23T13:01:16.007Z,10.23
2019-02-23T13:04:42.482Z,9.23
2019-02-23T13:07:38.769Z,9.00
2019-02-23T13:10:25.731Z,8.43
2019-02-23T13:25:09.522Z,10.60
2019-02-23T13:27:57.445Z,9.70
2019-02-23T13:31:02.171Z,9.90
2019-02-23T13:34:07.069Z,9.07
2019-02-23T13:37:36.191Z,9.10
2019-02-23T13:40:29.197Z,9.43
2019-02-23T13:43:54.575Z,9.67
2019-02-23T13:47:04.518Z,8.70
2019-02-23T13:50:19.076Z,8.37
2019-02-23T13:53:05.686Z,8.27
2019-02-23T13:56:24.040Z,9.03
2019-02-23T13:59:24.979Z,8.40
2019-02-23T14:02:15.915Z,9.73
2019-02-23T14:05:24.966Z,8.43
2019-02-23T14:08:23.297Z,9.00
2019-02-23T14:11:27.352Z,8.77
2019-02-23T14:14:26.510Z,9.13
2019-02-23T14:17:17.415Z,8.83
2019-02-23T14:20:29.418Z,8.17
2019-02-23T14:23:22.942Z,8.60
2019-02-23T14:26:32.465Z,9.00
2019-02-23T14:29:11.862Z,8.87
2019-02-23T14:31:58.727Z,9.03
2019-02-23T14:35:00.992Z,9.77
2019-02-23T14:37:51.441Z,8.97
2019-02-23T14:41:03.751Z,9.27
2019-02-23T14:44:18.111Z,10.47
2019-02-23T14:47:38.422Z,9.00
2019-02-23T14:50:59.499Z,10.13
2019-02-23T14:54:03.226Z,9.90
2019-02-23T14:56:57.665Z,8.83
2019-02-23T15:00:01.065Z,9.73
2019-02-23T15:03:26.488Z,9.00
2019-02-23T15:06:41.771Z,9.20
2019-02-23T15:09:33.393Z,9.03
2019-02-23T15:12:32.992Z,8.50
2019-02-23T15:15:44.015Z,8.90
2019-02-23T15:19:06.395Z,8.93
2019-02-23T15:22:24.562Z,8.73
2019-02-23T15:25:24.400Z,9.20
2019-02-23T15:28:30.340Z,9.53
2019-02-23T15:31:12.907Z,8.67
2019-02-23T15:37:57.766Z,10.00
2019-02-23T15:40:48.969Z,11.53
2019-02-23T15:43:41.657Z,8.37
2019-02-23T15:46:38.439Z,9.50
2019-02-23T15:49:35.600Z,8.87
2019-02-23T15:52:06.945Z,9.20
2019-02-23T15:54:36.562Z,9.47
2019-02-23T15:57:06.258Z,8.93
2019-02-23T15:59:36.220Z,8.13
2019-02-23T16:02:06.286Z,8.60
2019-02-23T16:05:00.236Z,8.20
2019-02-23T16:07:30.045Z,8.90
2019-02-23T16:10:19.067Z,8.30
2019-02-23T16:12:48.465Z,8.13
2019-02-23T16:15:18.122Z,9.47
2019-02-23T16:17:48.002Z,9.63
2019-02-23T16:20:17.997Z,9.60
2019-02-23T16:22:47.967Z,10.27
2019-02-23T16:25:17.676Z,8.90
2019-02-23T16:27:47.694Z,10.20
2019-02-23T16:30:17.712Z,10.30
2019-02-23T16:32:47.628Z,10.03
2019-02-23T16:35:42.074Z,10.90
2019-02-23T16:38:23.103Z,10.67
2019-02-23T16:40:52.908Z,10.43
2019-02-23T16:43:22.930Z,11.73
2019-02-23T16:45:56.506Z,10.83
2019-02-23T16:48:42.398Z,11.43
2019-02-23T16:51:15.403Z,11.40
2019-02-23T16:53:48.721Z,11.17
2019-02-23T16:56:19.422Z,12.70
2019-02-23T16:58:55.466Z,11.70
2019-02-23T17:01:45.063Z,11.00
2019-02-23T17:04:18.365Z,10.87
2019-02-23T17:06:48.532Z,10.60
2019-02-23T17:09:17.681Z,11.87
2019-02-23T17:11:46.815Z,12.47
2019-02-23T17:14:15.903Z,13.47
2019-02-23T17:16:45.050Z,11.57
2019-02-23T17:19:14.175Z,12.53
2019-02-23T17:21:43.259Z,11.60
2019-02-23T17:24:12.408Z,11.97
2019-02-23T17:26:41.555Z,15.80
2019-02-23T17:29:10.674Z,11.40
2019-02-23T17:31:39.671Z,13.60
2019-02-23T17:34:08.778Z,14.00
2019-02-23T17:36:37.907Z,13.30
2019-02-23T17:39:08.788Z,12.03
2019-02-23T17:41:37.950Z,11.57
2019-02-23T17:44:07.157Z,11.77
2019-02-23T17:46:36.285Z,11.83
2019-02-23T17:49:05.383Z,12.73
2019-02-23T17:51:34.503Z,11.17
2019-02-23T17:54:03.672Z,12.07
2019-02-23T17:56:32.683Z,11.77
2019-02-23T17:59:01.795Z,11.50
2019-02-23T18:01:30.905Z,11.37
2019-02-23T18:04:00.014Z,11.73
2019-02-23T18:06:30.977Z,11.33
2019-02-23T18:09:01.216Z,10.93
2019-02-23T18:11:30.471Z,12.50
2019-02-23T18:13:59.576Z,11.40
2019-02-23T18:16:28.717Z,10.87
2019-02-23T18:18:57.831Z,12.97
2019-02-23T18:21:26.931Z,11.77
2019-02-23T18:23:55.928Z,11.80
2019-02-23T18:26:25.223Z,11.77
2019-02-23T18:28:54.365Z,12.77
2019-02-23T18:31:23.525Z,13.23
2019-02-23T18:33:52.702Z,12.90
2019-02-23T18:36:21.800Z,13.77
2019-02-23T18:38:50.930Z,12.50
2019-02-23T18:41:20.296Z,12.03
2019-02-23T18:43:49.420Z,11.63
2019-02-23T18:46:18.522Z,11.70
2019-02-23T18:48:47.582Z,11.70
2019-02-23T18:51:16.701Z,12.13
2019-02-23T18:53:45.917Z,12.37
2019-02-23T18:56:14.961Z,11.63
2019-02-23T18:58:44.089Z,12.53
2019-02-23T19:01:13.182Z,12.23
2019-02-23T19:03:42.294Z,11.33
2019-02-23T19:06:11.406Z,13.13
2019-02-23T19:08:40.544Z,11.80
2019-02-23T19:11:09.644Z,13.13
2019-02-23T19:13:38.755Z,11.90
2019-02-23T19:16:07.852Z,11.80
2019-02-23T19:18:36.974Z,11.27
2019-02-23T19:21:06.040Z,10.03
2019-02-23T19:23:35.132Z,11.80
2019-02-23T19:26:04.225Z,10.57
2019-02-23T19:28:33.256Z,10.97
2019-02-23T19:31:02.339Z,10.70
2019-02-23T19:33:31.465Z,10.60
2019-02-23T19:36:00.547Z,9.97
2019-02-23T19:38:29.670Z,10.07
2019-02-23T19:40:58.779Z,10.67
2019-02-23T19:43:27.882Z,10.07
2019-02-23T19:45:57.000Z,9.87
2019-02-23T19:48:26.117Z,9.20
2019-02-23T19:50:58.949Z,11.17
2019-02-23T19:53:28.078Z,10.00
2019-02-23T19:55:57.149Z,10.63
2019-02-23T19:58:26.266Z,8.60
2019-02-23T20:00:55.405Z,9.60
2019-02-23T20:03:24.519Z,9.93
2019-02-23T20:05:53.625Z,9.73
2019-02-23T20:08:22.763Z,9.00
2019-02-23T20:10:51.865Z,10.83
2019-02-23T20:13:21.189Z,9.77
2019-02-23T20:15:50.307Z,10.53
2019-02-23T20:18:19.427Z,9.23
2019-02-23T20:20:48.564Z,9.23
2019-02-23T20:23:17.661Z,9.07
2019-02-23T20:25:46.753Z,9.80
2019-02-23T20:28:15.935Z,10.00
2019-02-23T20:30:45.008Z,9.40
2019-02-23T20:33:14.088Z,8.33
2019-02-23T20:35:43.198Z,8.73
2019-02-23T20:38:12.371Z,9.10
2019-02-23T20:40:41.461Z,9.90
2019-02-23T20:43:10.548Z,8.90
2019-02-23T20:45:39.665Z,9.60
2019-02-23T20:48:08.823Z,9.13
2019-02-23T20:50:37.865Z,9.43
2019-02-23T20:53:07.027Z,8.87
2019-02-23T20:55:36.138Z,8.50
2019-02-23T20:58:05.334Z,9.03
2019-02-23T21:00:34.663Z,9.43
2019-02-23T21:03:03.751Z,9.57
2019-02-23T21:05:32.889Z,8.53
2019-02-23T21:08:02.004Z,9.67
2019-02-23T21:10:31.126Z,9.37
2019-02-23T21:13:00.279Z,8.90
2019-02-23T21:15:29.401Z,9.73
2019-02-23T21:17:58.547Z,8.20
2019-02-23T21:20:27.663Z,8.47
2019-02-23T21:22:56.762Z,9.17
2019-02-23T21:25:25.894Z,9.17
2019-02-23T21:27:54.982Z,8.70
2019-02-23T21:30:24.257Z,8.40
2019-02-23T21:32:53.409Z,9.53
2019-02-23T21:35:22.520Z,8.23
2019-02-23T21:37:51.664Z,9.17
2019-02-23T21:40:20.858Z,8.93
2019-02-23T21:42:49.949Z,8.30
2019-02-23T21:45:19.028Z,10.10
2019-02-23T21:47:48.159Z,8.67
2019-02-23T21:50:17.319Z,9.90
2019-02-23T21:52:47.505Z,8.87
2019-02-23T21:55:16.731Z,8.57
2019-02-23T21:57:45.869Z,8.63
2019-02-23T22:00:15.005Z,7.97
2019-02-23T22:02:44.079Z,10.77
2019-02-23T22:05:13.222Z,8.10
2019-02-23T22:07:42.359Z,8.43
2019-02-23T22:10:11.468Z,10.50
2019-02-23T22:12:40.627Z,8.87
2019-02-23T22:15:09.735Z,8.73
2019-02-23T22:17:38.912Z,8.87
2019-02-23T22:20:08.096Z,7.83
2019-02-23T22:22:37.242Z,10.40
2019-02-23T22:25:06.378Z,8.67
2019-02-23T22:27:35.698Z,8.43
2019-02-23T22:30:05.091Z,8.47
2019-02-23T22:32:34.255Z,8.63
2019-02-23T22:35:03.456Z,9.27
2019-02-23T22:37:33.608Z,7.60
2019-02-23T22:40:02.772Z,7.27
2019-02-23T22:42:31.839Z,7.37
2019-02-23T22:45:00.961Z,7.80
2019-02-23T22:47:30.022Z,7.60
2019-02-23T22:49:59.164Z,7.60
2019-02-23T22:52:28.250Z,8.57
2019-02-23T22:54:57.355Z,9.73
2019-02-23T22:57:26.445Z,7.23
2019-02-23T22:59:55.563Z,7.47
2019-02-23T23:02:24.748Z,7.13
2019-02-23T23:04:53.898Z,7.50
2019-02-23T23:07:23.118Z,8.10
2019-02-23T23:09:52.230Z,7.40
2019-02-23T23:12:21.333Z,7.83
2019-02-23T23:14:50.334Z,7.57
2019-02-23T23:17:19.567Z,8.23
2019-02-23T23:19:48.740Z,7.53
2019-02-23T23:22:17.879Z,7.13
2019-02-23T23:24:46.962Z,8.27
2019-02-23T23:27:16.069Z,7.23
2019-02-23T23:29:45.160Z,7.50
2019-02-23T23:32:14.263Z,8.57
2019-02-23T23:34:43.324Z,6.53
2019-02-23T23:37:12.436Z,7.17
2019-02-23T23:39:41.534Z,7.27
2019-02-23T23:42:10.637Z,6.73
2019-02-23T23:44:39.737Z,7.33
2019-02-23T23:47:08.832Z,7.40
2019-02-23T23:49:37.925Z,7.10
2019-02-23T23:52:07.087Z,6.80
2019-02-23T23:54:36.146Z,8.37
2019-02-23T23:57:05.253Z,6.63
2019-02-23T23:59:34.311Z,7.90
